createdAt,value
2018-12-08T00:00:29.961Z,54.55
2018-12-08T00:02:56.628Z,54.42
2018-12-08T00:05:23.286Z,54.48
2018-12-08T00:07:49.921Z,54.29
2018-12-08T00:10:16.534Z,53.35
2018-12-08T00:12:43.183Z,53.77
2018-12-08T00:15:09.803Z,53.96
2018-12-08T00:17:36.436Z,53.76
2018-12-08T00:20:03.040Z,54.36
2018-12-08T00:22:29.693Z,54.33
2018-12-08T00:24:56.344Z,54.38
2018-12-08T00:27:22.970Z,53.85
2018-12-08T00:29:49.637Z,53.75
2018-12-08T00:32:16.295Z,53.92
2018-12-08T00:34:42.896Z,54.55
2018-12-08T00:37:09.569Z,53.70
2018-12-08T00:39:36.228Z,54.30
2018-12-08T00:42:02.887Z,54.46
2018-12-08T00:44:29.516Z,54.16
2018-12-08T00:46:56.152Z,54.49
2018-12-08T00:49:22.818Z,53.91
2018-12-08T00:51:49.447Z,54.50
2018-12-08T00:54:16.081Z,54.13
2018-12-08T00:56:42.878Z,54.25
2018-12-08T00:59:09.476Z,54.30
2018-12-08T01:01:36.118Z,53.80
2018-12-08T01:04:02.775Z,54.16
2018-12-08T01:06:29.468Z,53.90
2018-12-08T01:08:56.083Z,54.09
2018-12-08T01:11:22.732Z,53.81
2018-12-08T01:13:49.363Z,54.32
2018-12-08T01:16:16.071Z,54.26
2018-12-08T01:18:42.740Z,54.23
2018-12-08T01:21:09.479Z,53.74
2018-12-08T01:23:36.112Z,53.95
2018-12-08T01:26:02.746Z,54.44
2018-12-08T01:28:29.366Z,54.09
2018-12-08T01:30:56.049Z,54.29
2018-12-08T01:33:22.702Z,54.23
2018-12-08T01:35:49.433Z,53.79
2018-12-08T01:38:16.121Z,53.80
2018-12-08T01:40:42.735Z,53.97
2018-12-08T01:43:09.396Z,54.10
2018-12-08T01:45:36.070Z,53.55
2018-12-08T01:48:02.734Z,54.14
2018-12-08T01:50:29.355Z,53.42
2018-12-08T01:52:55.988Z,54.31
2018-12-08T01:55:22.597Z,53.54
2018-12-08T01:57:49.224Z,53.85
2018-12-08T02:00:15.876Z,54.16
2018-12-08T02:02:42.577Z,53.67
2018-12-08T02:05:09.231Z,54.23
2018-12-08T02:07:35.883Z,53.80
2018-12-08T02:10:02.510Z,53.49
2018-12-08T02:12:29.119Z,53.48
2018-12-08T02:14:55.847Z,53.43
2018-12-08T02:17:22.468Z,54.26
2018-12-08T02:19:49.106Z,53.89
2018-12-08T02:22:15.748Z,53.18
2018-12-08T02:24:42.400Z,54.17
2018-12-08T02:27:09.047Z,53.52
2018-12-08T02:29:35.716Z,53.89
2018-12-08T02:32:02.407Z,53.63
2018-12-08T02:34:29.157Z,53.58
2018-12-08T02:36:55.784Z,54.27
2018-12-08T02:39:22.451Z,53.92
2018-12-08T02:41:49.185Z,53.95
2018-12-08T02:44:15.803Z,53.40
2018-12-08T02:46:42.449Z,53.46
2018-12-08T02:49:09.139Z,53.61
2018-12-08T02:51:35.729Z,54.30
2018-12-08T02:54:02.363Z,53.65
2018-12-08T02:56:29.012Z,54.21
2018-12-08T02:58:55.661Z,54.18
2018-12-08T03:01:22.329Z,54.07
2018-12-08T03:03:49.000Z,53.59
2018-12-08T03:06:15.663Z,53.67
2018-12-08T03:08:42.309Z,53.44
2018-12-08T03:11:08.945Z,54.11
2018-12-08T03:13:35.579Z,54.31
2018-12-08T03:16:02.292Z,53.94
2018-12-08T03:18:28.922Z,53.97
2018-12-08T03:20:55.577Z,53.23
2018-12-08T03:23:22.399Z,53.43
2018-12-08T03:25:49.100Z,54.14
2018-12-08T03:28:15.781Z,53.65
2018-12-08T03:30:45.343Z,53.97
2018-12-08T03:33:11.109Z,53.98
2018-12-08T03:35:37.867Z,53.62
2018-12-08T03:38:04.690Z,53.37
2018-12-08T03:40:31.319Z,53.62
2018-12-08T03:42:57.957Z,53.78
2018-12-08T03:45:24.600Z,53.46
2018-12-08T03:47:51.238Z,53.86
2018-12-08T03:50:17.896Z,53.84
2018-12-08T03:52:44.552Z,54.15
2018-12-08T03:55:11.201Z,54.09
2018-12-08T03:57:37.828Z,53.58
2018-12-08T04:00:04.466Z,53.49
2018-12-08T04:02:31.092Z,54.12
2018-12-08T04:04:57.820Z,54.02
2018-12-08T04:07:24.476Z,53.62
2018-12-08T04:09:51.082Z,53.52
2018-12-08T04:12:17.735Z,53.87
2018-12-08T04:14:44.371Z,53.49
2018-12-08T04:17:11.051Z,53.55
2018-12-08T04:19:37.707Z,53.68
2018-12-08T04:22:04.466Z,54.13
2018-12-08T04:24:31.140Z,53.63
2018-12-08T04:26:57.773Z,53.63
2018-12-08T04:29:24.400Z,54.34
2018-12-08T04:31:51.068Z,53.62
2018-12-08T04:34:17.678Z,54.07
2018-12-08T04:36:44.314Z,53.46
2018-12-08T04:39:10.919Z,54.05
2018-12-08T04:41:37.521Z,53.49
2018-12-08T04:44:04.182Z,53.65
2018-12-08T04:46:30.814Z,53.48
2018-12-08T04:48:57.519Z,54.21
2018-12-08T04:51:24.147Z,54.10
2018-12-08T04:53:50.786Z,53.83
2018-12-08T04:56:17.440Z,54.37
2018-12-08T04:58:44.053Z,54.12
2018-12-08T05:01:10.642Z,54.13
2018-12-08T05:03:37.233Z,53.41
2018-12-08T05:06:03.839Z,53.40
2018-12-08T05:08:30.531Z,54.23
2018-12-08T05:10:57.133Z,53.59
2018-12-08T05:13:23.780Z,54.36
2018-12-08T05:15:50.454Z,53.69
2018-12-08T05:18:17.105Z,54.15
2018-12-08T05:20:43.726Z,53.53
2018-12-08T05:23:10.307Z,54.15
2018-12-08T05:25:36.935Z,54.02
2018-12-08T05:28:03.591Z,53.65
2018-12-08T05:30:30.244Z,53.65
2018-12-08T05:32:56.850Z,54.08
2018-12-08T05:35:23.455Z,53.47
2018-12-08T05:37:50.092Z,53.74
2018-12-08T05:40:16.721Z,53.71
2018-12-08T05:42:43.346Z,54.26
2018-12-08T05:45:09.964Z,53.60
2018-12-08T05:47:36.593Z,53.67
2018-12-08T05:50:03.205Z,54.12
2018-12-08T05:52:29.812Z,53.61
2018-12-08T05:54:56.555Z,53.91
2018-12-08T05:57:23.175Z,54.56
2018-12-08T05:59:49.806Z,53.76
2018-12-08T06:02:16.448Z,53.89
2018-12-08T06:04:43.053Z,53.45
2018-12-08T06:07:09.690Z,54.50
2018-12-08T06:09:36.330Z,53.44
2018-12-08T06:12:02.966Z,54.23
2018-12-08T06:14:29.639Z,54.21
2018-12-08T06:16:56.270Z,54.27
2018-12-08T06:19:22.882Z,53.64
2018-12-08T06:21:49.543Z,53.48
2018-12-08T06:24:16.146Z,53.68
2018-12-08T06:26:42.786Z,54.33
2018-12-08T06:29:09.434Z,54.16
2018-12-08T06:31:36.065Z,54.15
2018-12-08T06:34:02.682Z,54.06
2018-12-08T06:36:29.287Z,54.13
2018-12-08T06:38:55.906Z,54.02
2018-12-08T06:41:22.539Z,53.42
2018-12-08T06:43:49.178Z,53.64
2018-12-08T06:46:15.820Z,53.47
2018-12-08T06:48:42.444Z,53.35
2018-12-08T06:51:09.064Z,54.18
2018-12-08T06:53:35.654Z,53.43
2018-12-08T06:56:02.240Z,53.72
2018-12-08T06:58:29.209Z,53.96
2018-12-08T07:00:55.825Z,54.05
2018-12-08T07:03:22.486Z,54.13
2018-12-08T07:05:49.101Z,53.24
2018-12-08T07:08:15.718Z,53.32
2018-12-08T07:10:42.336Z,54.16
2018-12-08T07:13:08.972Z,53.90
2018-12-08T07:15:35.584Z,54.15
2018-12-08T07:18:02.218Z,53.21
2018-12-08T07:20:28.925Z,53.18
2018-12-08T07:22:55.652Z,53.36
2018-12-08T07:25:22.291Z,53.66
2018-12-08T07:27:48.915Z,53.76
2018-12-08T07:30:15.558Z,54.06
2018-12-08T07:32:42.244Z,53.98
2018-12-08T07:35:08.936Z,53.83
2018-12-08T07:37:35.584Z,53.20
2018-12-08T07:40:02.283Z,53.96
2018-12-08T07:42:28.942Z,53.34
2018-12-08T07:44:55.562Z,53.44
2018-12-08T07:47:22.146Z,53.32
2018-12-08T07:49:48.755Z,53.25
2018-12-08T07:52:15.380Z,53.77
2018-12-08T07:54:42.115Z,53.71
2018-12-08T07:57:08.747Z,53.18
2018-12-08T07:59:35.348Z,53.76
2018-12-08T08:02:01.939Z,53.46
2018-12-08T08:04:28.575Z,53.93
2018-12-08T08:06:55.203Z,53.89
2018-12-08T08:09:21.838Z,52.96
2018-12-08T08:11:48.466Z,53.18
2018-12-08T08:14:15.063Z,53.85
2018-12-08T08:16:41.644Z,53.15
2018-12-08T08:19:08.288Z,53.43
2018-12-08T08:21:34.925Z,53.51
2018-12-08T08:24:01.551Z,53.77
2018-12-08T08:26:28.196Z,53.67
2018-12-08T08:28:54.834Z,53.15
2018-12-08T08:31:21.467Z,53.83
2018-12-08T08:33:48.071Z,52.83
2018-12-08T08:36:14.668Z,53.47
2018-12-08T08:38:41.318Z,53.09
2018-12-08T08:41:07.920Z,53.10
2018-12-08T08:43:34.555Z,52.87
2018-12-08T08:46:01.210Z,53.02
2018-12-08T08:48:27.826Z,53.54
2018-12-08T08:50:54.513Z,53.26
2018-12-08T08:53:21.237Z,52.84
2018-12-08T08:55:47.838Z,53.05
2018-12-08T08:58:14.460Z,53.46
2018-12-08T09:00:41.074Z,52.93
2018-12-08T09:03:07.737Z,53.40
2018-12-08T09:05:34.368Z,52.76
2018-12-08T09:08:00.971Z,53.49
2018-12-08T09:10:27.646Z,53.36
2018-12-08T09:12:54.244Z,53.56
2018-12-08T09:15:20.901Z,53.19
2018-12-08T09:17:47.523Z,53.21
2018-12-08T09:20:14.167Z,52.68
2018-12-08T09:22:40.778Z,52.42
2018-12-08T09:25:07.412Z,53.28
2018-12-08T09:27:34.051Z,53.46
2018-12-08T09:30:00.664Z,53.20
2018-12-08T09:32:27.270Z,53.09
2018-12-08T09:34:53.907Z,52.90
2018-12-08T09:37:20.525Z,52.99
2018-12-08T09:39:47.172Z,52.59
2018-12-08T09:42:13.784Z,53.09
2018-12-08T09:44:40.432Z,52.91
2018-12-08T09:47:07.026Z,53.18
2018-12-08T09:49:33.645Z,52.53
2018-12-08T09:52:00.243Z,52.75
2018-12-08T09:54:26.892Z,53.19
2018-12-08T09:56:53.544Z,52.61
2018-12-08T09:59:20.173Z,52.52
2018-12-08T10:01:46.899Z,53.18
2018-12-08T10:04:13.551Z,53.03
2018-12-08T10:06:40.195Z,52.97
2018-12-08T10:09:06.892Z,52.63
2018-12-08T10:11:33.555Z,52.93
2018-12-08T10:14:00.274Z,52.88
2018-12-08T10:16:26.897Z,52.83
2018-12-08T10:18:53.566Z,53.24
2018-12-08T10:21:20.205Z,52.98
2018-12-08T10:23:46.944Z,53.15
2018-12-08T10:26:13.568Z,52.32
2018-12-08T10:28:40.156Z,53.02
2018-12-08T10:31:06.804Z,52.80
2018-12-08T10:33:33.501Z,53.04
2018-12-08T10:36:00.125Z,52.38
2018-12-08T10:38:26.770Z,52.26
2018-12-08T10:40:53.408Z,53.04
2018-12-08T10:43:20.057Z,52.32
2018-12-08T10:45:46.771Z,52.74
2018-12-08T10:48:13.459Z,52.15
2018-12-08T10:50:40.152Z,52.24
2018-12-08T10:53:06.792Z,52.13
2018-12-08T10:55:33.415Z,52.74
2018-12-08T10:58:00.039Z,52.08
2018-12-08T11:00:32.228Z,52.83
2018-12-08T11:03:00.862Z,52.75
2018-12-08T11:05:27.461Z,52.18
2018-12-08T11:07:54.118Z,52.81
2018-12-08T11:10:20.777Z,52.03
2018-12-08T11:12:47.395Z,51.99
2018-12-08T11:15:14.021Z,52.70
2018-12-08T11:17:40.635Z,52.20
2018-12-08T11:20:07.257Z,52.65
2018-12-08T11:22:33.948Z,52.47
2018-12-08T11:25:00.585Z,51.99
2018-12-08T11:27:27.187Z,51.91
2018-12-08T11:29:54.019Z,52.65
2018-12-08T11:32:20.703Z,52.17
2018-12-08T11:34:47.324Z,52.17
2018-12-08T11:37:13.939Z,51.97
2018-12-08T11:39:40.607Z,52.13
2018-12-08T11:42:07.256Z,52.59
2018-12-08T11:44:34.137Z,52.90
2018-12-08T11:47:00.887Z,52.40
2018-12-08T11:49:27.552Z,52.16
2018-12-08T11:51:54.180Z,51.97
2018-12-08T11:54:20.820Z,51.96
2018-12-08T11:56:47.453Z,52.58
2018-12-08T11:59:14.065Z,52.62
2018-12-08T12:01:40.741Z,52.72
2018-12-08T12:04:07.374Z,52.76
2018-12-08T12:06:33.951Z,52.26
2018-12-08T12:09:00.588Z,52.17
2018-12-08T12:11:27.204Z,51.99
2018-12-08T12:13:53.836Z,51.75
2018-12-08T12:16:20.479Z,51.93
2018-12-08T12:18:47.106Z,52.67
2018-12-08T12:21:13.771Z,52.34
2018-12-08T12:23:40.405Z,52.52
2018-12-08T12:26:07.064Z,51.79
2018-12-08T12:28:33.684Z,52.00
2018-12-08T12:31:00.306Z,52.38
2018-12-08T12:33:26.947Z,52.32
2018-12-08T12:35:53.566Z,52.41
2018-12-08T12:38:20.228Z,51.85
2018-12-08T12:40:46.824Z,51.62
2018-12-08T12:43:13.463Z,52.04
2018-12-08T12:45:40.067Z,52.46
2018-12-08T12:48:06.697Z,52.30
2018-12-08T12:50:33.316Z,51.90
2018-12-08T12:53:00.076Z,52.38
2018-12-08T12:55:26.710Z,52.14
2018-12-08T12:57:53.346Z,52.47
2018-12-08T13:00:20.019Z,51.40
2018-12-08T13:02:46.615Z,51.74
2018-12-08T13:05:13.230Z,52.43
2018-12-08T13:07:39.903Z,51.38
2018-12-08T13:10:06.617Z,52.13
2018-12-08T13:12:33.375Z,51.88
2018-12-08T13:15:00.024Z,52.53
2018-12-08T13:17:26.654Z,52.01
2018-12-08T13:19:53.297Z,51.43
2018-12-08T13:22:19.960Z,51.91
2018-12-08T13:24:46.609Z,52.39
2018-12-08T13:27:13.221Z,51.76
2018-12-08T13:29:39.877Z,52.29
2018-12-08T13:32:06.495Z,52.04
2018-12-08T13:34:33.148Z,52.43
2018-12-08T13:36:59.850Z,52.48
2018-12-08T13:39:26.464Z,52.39
2018-12-08T13:41:53.135Z,51.68
2018-12-08T13:44:21.696Z,52.47
2018-12-08T13:46:48.565Z,51.71
2018-12-08T13:49:15.225Z,52.33
2018-12-08T13:51:41.897Z,52.51
2018-12-08T13:54:08.518Z,52.38
2018-12-08T13:56:35.123Z,52.12
2018-12-08T13:59:01.736Z,52.01
2018-12-08T14:01:28.397Z,51.93
2018-12-08T14:03:55.172Z,52.47
2018-12-08T14:06:21.781Z,52.51
2018-12-08T14:08:48.461Z,52.39
2018-12-08T14:11:15.068Z,51.88
2018-12-08T14:13:41.677Z,52.49
2018-12-08T14:16:08.287Z,51.99
2018-12-08T14:18:34.936Z,52.11
2018-12-08T14:21:01.585Z,51.70
2018-12-08T14:23:28.210Z,51.65
2018-12-08T14:25:54.876Z,52.34
2018-12-08T14:28:21.693Z,51.84
2018-12-08T14:30:48.286Z,52.30
2018-12-08T14:33:15.445Z,52.22
2018-12-08T14:35:42.161Z,51.31
2018-12-08T14:38:08.852Z,51.69
2018-12-08T14:40:35.490Z,52.31
2018-12-08T14:43:02.102Z,52.11
2018-12-08T14:45:28.711Z,52.47
2018-12-08T14:47:55.305Z,51.81
2018-12-08T14:50:21.958Z,51.83
2018-12-08T14:52:48.563Z,52.27
2018-12-08T14:55:15.172Z,51.78
2018-12-08T14:57:41.821Z,52.28
2018-12-08T15:00:08.424Z,51.95
2018-12-08T15:02:35.059Z,52.25
2018-12-08T15:05:01.733Z,52.34
2018-12-08T15:07:28.331Z,51.66
2018-12-08T15:09:54.958Z,51.58
2018-12-08T15:12:21.589Z,51.92
2018-12-08T15:14:48.252Z,51.73
2018-12-08T15:17:14.899Z,52.33
2018-12-08T15:19:41.564Z,51.69
2018-12-08T15:22:08.176Z,52.39
2018-12-08T15:24:34.791Z,51.61
2018-12-08T15:27:01.417Z,51.70
2018-12-08T15:29:28.019Z,52.39
2018-12-08T15:31:54.649Z,51.73
2018-12-08T15:34:21.260Z,51.61
2018-12-08T15:36:47.877Z,51.80
2018-12-08T15:39:14.523Z,52.45
2018-12-08T15:41:41.199Z,51.95
2018-12-08T15:44:07.824Z,51.73
2018-12-08T15:46:34.460Z,51.66
2018-12-08T15:49:01.152Z,52.25
2018-12-08T15:51:27.836Z,52.06
2018-12-08T15:53:54.462Z,52.43
2018-12-08T15:56:21.110Z,52.25
2018-12-08T15:58:47.779Z,51.61
2018-12-08T16:01:14.400Z,52.33
2018-12-08T16:03:41.038Z,51.69
2018-12-08T16:06:07.766Z,51.61
2018-12-08T16:08:34.386Z,51.86
2018-12-08T16:11:01.035Z,52.35
2018-12-08T16:13:27.655Z,51.71
2018-12-08T16:15:54.400Z,51.55
2018-12-08T16:18:21.038Z,52.40
2018-12-08T16:20:47.670Z,51.72
2018-12-08T16:23:14.308Z,51.98
2018-12-08T16:25:40.926Z,51.78
2018-12-08T16:28:07.554Z,52.29
2018-12-08T16:30:34.149Z,52.41
2018-12-08T16:33:00.778Z,52.30
2018-12-08T16:35:27.412Z,52.40
2018-12-08T16:37:57.138Z,51.99
2018-12-08T16:40:22.740Z,51.75
2018-12-08T16:42:49.373Z,51.78
2018-12-08T16:45:16.110Z,52.32
2018-12-08T16:47:42.708Z,52.17
2018-12-08T16:50:09.341Z,51.83
2018-12-08T16:52:35.939Z,52.24
2018-12-08T16:55:02.583Z,51.54
2018-12-08T16:57:29.237Z,52.16
2018-12-08T16:59:55.898Z,51.65
2018-12-08T17:02:22.518Z,52.26
2018-12-08T17:04:49.098Z,51.57
2018-12-08T17:07:16.489Z,52.07
2018-12-08T17:09:43.283Z,52.07
2018-12-08T17:12:09.850Z,52.25
2018-12-08T17:14:36.466Z,52.05
2018-12-08T17:17:03.110Z,52.33
2018-12-08T17:19:29.724Z,52.19
2018-12-08T17:21:56.386Z,51.76
2018-12-08T17:24:22.992Z,51.72
2018-12-08T17:26:49.694Z,51.66
2018-12-08T17:29:16.314Z,51.80
2018-12-08T17:31:42.946Z,52.38
2018-12-08T17:34:09.545Z,51.64
2018-12-08T17:36:36.139Z,52.23
2018-12-08T17:39:03.255Z,51.62
2018-12-08T17:41:29.912Z,51.89
2018-12-08T17:43:56.535Z,52.42
2018-12-08T17:46:23.178Z,52.23
2018-12-08T17:48:49.835Z,51.65
2018-12-08T17:51:16.458Z,51.61
2018-12-08T17:53:43.116Z,52.27
2018-12-08T17:56:09.765Z,51.90
2018-12-08T17:58:36.398Z,52.26
2018-12-08T18:01:03.235Z,51.89
2018-12-08T18:03:29.902Z,51.74
2018-12-08T18:05:56.602Z,52.21
2018-12-08T18:08:23.245Z,52.17
2018-12-08T18:10:49.936Z,51.66
2018-12-08T18:13:16.538Z,52.38
2018-12-08T18:15:43.188Z,52.33
2018-12-08T18:18:09.772Z,51.57
2018-12-08T18:20:36.452Z,52.41
2018-12-08T18:23:03.070Z,52.37
2018-12-08T18:25:29.704Z,52.18
2018-12-08T18:27:56.314Z,52.68
2018-12-08T18:30:22.937Z,52.43
2018-12-08T18:32:49.627Z,51.76
2018-12-08T18:35:16.203Z,51.64
2018-12-08T18:37:42.849Z,51.75
2018-12-08T18:40:09.495Z,51.76
2018-12-08T18:42:36.207Z,51.84
2018-12-08T18:45:02.833Z,51.90
2018-12-08T18:47:29.478Z,51.47
2018-12-08T18:49:56.104Z,52.02
2018-12-08T18:52:22.731Z,52.30
2018-12-08T18:54:49.378Z,52.48
2018-12-08T18:59:48.880Z,51.63
2018-12-08T19:02:15.480Z,51.79
2018-12-08T19:04:42.082Z,51.74
2018-12-08T19:07:08.690Z,51.49
2018-12-08T19:09:35.291Z,52.03
2018-12-08T19:12:01.877Z,51.51
2018-12-08T19:14:28.520Z,52.45
2018-12-08T19:16:55.152Z,51.66
2018-12-08T19:19:21.894Z,52.28
2018-12-08T19:21:48.497Z,51.87
2018-12-08T19:24:15.107Z,51.77
2018-12-08T19:26:41.791Z,51.74
2018-12-08T19:29:08.415Z,51.78
2018-12-08T19:31:35.035Z,52.23
2018-12-08T19:34:01.631Z,52.06
2018-12-08T19:36:28.268Z,51.94
2018-12-08T19:38:54.895Z,51.23
2018-12-08T19:41:21.459Z,51.60
2018-12-08T19:43:48.120Z,52.18
2018-12-08T19:46:14.707Z,51.78
2018-12-08T19:48:41.345Z,52.71
2018-12-08T19:51:07.978Z,51.63
2018-12-08T19:53:34.614Z,52.37
2018-12-08T19:56:01.244Z,52.13
2018-12-08T19:58:27.883Z,51.63
2018-12-08T20:00:54.528Z,51.89
2018-12-08T20:03:21.263Z,51.76
2018-12-08T20:05:47.914Z,51.92
2018-12-08T20:08:14.546Z,51.75
2018-12-08T20:10:41.176Z,51.66
2018-12-08T20:13:07.855Z,51.83
2018-12-08T20:15:34.467Z,51.68
2018-12-08T20:18:01.114Z,51.54
2018-12-08T20:20:27.749Z,51.55
2018-12-08T20:22:54.553Z,51.64
2018-12-08T20:25:21.202Z,52.27
2018-12-08T20:27:47.807Z,51.55
2018-12-08T20:30:14.457Z,52.37
2018-12-08T20:32:41.097Z,51.47
2018-12-08T20:35:07.713Z,52.25
2018-12-08T20:37:34.412Z,52.31
2018-12-08T20:40:01.053Z,51.53
2018-12-08T20:42:27.693Z,52.22
2018-12-08T20:44:54.359Z,51.61
2018-12-08T20:47:20.969Z,51.88
2018-12-08T20:49:47.615Z,51.61
2018-12-08T20:52:14.225Z,52.17
2018-12-08T20:54:40.837Z,51.83
2018-12-08T20:57:07.428Z,52.04
2018-12-08T20:59:34.048Z,51.56
2018-12-08T21:02:00.762Z,51.65
2018-12-08T21:04:27.341Z,52.03
2018-12-08T21:06:54.258Z,52.26
2018-12-08T21:09:20.895Z,51.98
2018-12-08T21:11:47.564Z,50.84
2018-12-08T21:14:14.208Z,52.26
2018-12-08T21:16:40.883Z,52.24
2018-12-08T21:19:07.542Z,52.05
2018-12-08T21:21:34.118Z,51.57
2018-12-08T21:24:00.975Z,51.43
2018-12-08T21:26:28.015Z,51.46
2018-12-08T21:28:54.642Z,52.13
2018-12-08T21:31:21.372Z,52.17
2018-12-08T21:33:48.031Z,51.99
2018-12-08T21:36:14.662Z,51.45
2018-12-08T21:38:41.288Z,52.15
2018-12-08T21:41:08.015Z,52.13
2018-12-08T21:43:34.651Z,51.55
2018-12-08T21:46:01.297Z,52.19
2018-12-08T21:48:27.928Z,52.11
2018-12-08T21:50:54.583Z,52.15
2018-12-08T21:53:21.258Z,51.57
2018-12-08T21:55:47.875Z,52.03
2018-12-08T21:58:14.523Z,51.49
2018-12-08T22:00:41.239Z,51.51
2018-12-08T22:03:07.896Z,52.18
2018-12-08T22:05:34.556Z,51.96
2018-12-08T22:08:01.227Z,51.52
2018-12-08T22:10:27.876Z,51.44
2018-12-08T22:12:54.502Z,51.65
2018-12-08T22:15:21.126Z,52.17
2018-12-08T22:17:47.807Z,52.11
2018-12-08T22:20:14.448Z,52.54
2018-12-08T22:22:41.083Z,51.95
2018-12-08T22:25:07.782Z,51.81
2018-12-08T22:27:34.528Z,52.24
2018-12-08T22:30:01.121Z,52.06
2018-12-08T22:32:27.762Z,52.19
2018-12-08T22:34:54.453Z,52.08
2018-12-08T22:37:21.075Z,51.37
2018-12-08T22:39:47.685Z,51.51
2018-12-08T22:42:14.323Z,52.06
2018-12-08T22:44:41.007Z,51.49
2018-12-08T22:47:07.676Z,51.55
2018-12-08T22:49:34.295Z,51.37
2018-12-08T22:52:00.928Z,51.62
2018-12-08T22:54:27.577Z,51.99
2018-12-08T22:56:54.247Z,52.25
2018-12-08T22:59:20.879Z,51.92
2018-12-08T23:01:47.511Z,51.28
2018-12-08T23:04:14.143Z,52.01
2018-12-08T23:06:40.793Z,52.00
2018-12-08T23:09:07.400Z,51.81
2018-12-08T23:11:34.054Z,51.51
2018-12-08T23:14:00.696Z,51.52
2018-12-08T23:16:27.325Z,51.51
2018-12-08T23:18:53.932Z,51.30
2018-12-08T23:21:20.587Z,51.52
2018-12-08T23:23:47.224Z,52.09
2018-12-08T23:26:13.857Z,52.01
2018-12-08T23:28:40.485Z,52.17
2018-12-08T23:31:07.117Z,52.17
2018-12-08T23:33:33.698Z,51.33
2018-12-08T23:36:00.329Z,52.12
2018-12-08T23:38:26.975Z,51.95
2018-12-08T23:40:53.604Z,51.36
2018-12-08T23:43:20.249Z,51.96
2018-12-08T23:45:46.864Z,51.30
2018-12-08T23:48:13.518Z,52.03
2018-12-08T23:50:40.140Z,51.52
2018-12-08T23:53:06.758Z,51.81
2018-12-08T23:55:33.373Z,51.33
2018-12-08T23:58:00.009Z,52.37
